sensor_id;sensor_type;location;lat;lon;timestamp;pressure;altitude;pressure_sealevel;temperature;humidity
21357;BME280;10836;53.068;18.234;2023-04-04T00:00:29;102303.66;;;-0.98;82.29
21357;BME280;10836;53.068;18.234;2023-04-04T00:03:15;102294.13;;;-0.92;82.73
21357;BME280;10836;53.068;18.234;2023-04-04T00:05:43;102295.44;;;-0.96;81.59
21357;BME280;10836;53.068;18.234;2023-04-04T00:08:10;102291.28;;;-0.91;82.38
21357;BME280;10836;53.068;18.234;2023-04-04T00:10:37;102294.97;;;-0.92;83.41
21357;BME280;10836;53.068;18.234;2023-04-04T00:13:04;102287.47;;;-0.80;82.65
21357;BME280;10836;53.068;18.234;2023-04-04T00:15:33;102293.97;;;-0.83;81.92
21357;BME280;10836;53.068;18.234;2023-04-04T00:18:02;102286.63;;;-0.81;81.30
21357;BME280;10836;53.068;18.234;2023-04-04T00:20:30;102285.09;;;-0.91;83.58
21357;BME280;10836;53.068;18.234;2023-04-04T00:22:57;102281.25;;;-0.89;83.31
21357;BME280;10836;53.068;18.234;2023-04-04T00:25:24;102274.88;;;-0.88;84.10
21357;BME280;10836;53.068;18.234;2023-04-04T00:27:51;102268.84;;;-0.82;83.68
21357;BME280;10836;53.068;18.234;2023-04-04T00:30:19;102274.88;;;-0.80;84.34
21357;BME280;10836;53.068;18.234;2023-04-04T00:32:45;102274.19;;;-0.90;85.12
21357;BME280;10836;53.068;18.234;2023-04-04T00:35:12;102271.94;;;-0.69;83.07
21357;BME280;10836;53.068;18.234;2023-04-04T00:37:39;102271.97;;;-0.60;80.85
21357;BME280;10836;53.068;18.234;2023-04-04T00:40:07;102268.28;;;-0.59;81.50
21357;BME280;10836;53.068;18.234;2023-04-04T00:42:34;102267.97;;;-0.56;80.80
21357;BME280;10836;53.068;18.234;2023-04-04T00:45:05;102268.31;;;-0.51;80.71
21357;BME280;10836;53.068;18.234;2023-04-04T00:47:33;102268.94;;;-0.65;80.91
21357;BME280;10836;53.068;18.234;2023-04-04T00:50:01;102265.91;;;-0.62;80.92
21357;BME280;10836;53.068;18.234;2023-04-04T00:52:27;102267.13;;;-0.57;81.03
21357;BME280;10836;53.068;18.234;2023-04-04T00:54:55;102263.75;;;-0.59;81.31
21357;BME280;10836;53.068;18.234;2023-04-04T00:57:22;102260.59;;;-0.54;81.40
21357;BME280;10836;53.068;18.234;2023-04-04T00:59:50;102253.22;;;-0.52;79.66
21357;BME280;10836;53.068;18.234;2023-04-04T01:02:17;102255.94;;;-0.44;80.24
21357;BME280;10836;53.068;18.234;2023-04-04T01:04:44;102255.09;;;-0.45;79.36
21357;BME280;10836;53.068;18.234;2023-04-04T01:07:11;102249.88;;;-0.46;78.49
21357;BME280;10836;53.068;18.234;2023-04-04T01:09:39;102249.22;;;-0.48;77.62
21357;BME280;10836;53.068;18.234;2023-04-04T01:12:06;102245.34;;;-0.38;78.43
21357;BME280;10836;53.068;18.234;2023-04-04T01:14:33;102241.47;;;-0.43;77.91
21357;BME280;10836;53.068;18.234;2023-04-04T01:17:01;102247.03;;;-0.37;78.32
21357;BME280;10836;53.068;18.234;2023-04-04T01:19:35;102248.56;;;-0.26;78.08
21357;BME280;10836;53.068;18.234;2023-04-04T01:22:08;102247.91;;;-0.20;77.41
21357;BME280;10836;53.068;18.234;2023-04-04T01:24:38;102244.88;;;-0.25;78.23
21357;BME280;10836;53.068;18.234;2023-04-04T01:27:07;102244.88;;;-0.25;77.19
21357;BME280;10836;53.068;18.234;2023-04-04T01:29:40;102242.22;;;-0.17;76.68
21357;BME280;10836;53.068;18.234;2023-04-04T01:32:15;102232.66;;;-0.11;76.86
21357;BME280;10836;53.068;18.234;2023-04-04T01:34:57;102235.50;;;-0.21;77.27
21357;BME280;10836;53.068;18.234;2023-04-04T01:37:35;102236.84;;;-0.17;75.45
21357;BME280;10836;53.068;18.234;2023-04-04T01:40:15;102231.13;;;-0.30;76.73
21357;BME280;10836;53.068;18.234;2023-04-04T01:42:47;102232.13;;;-0.23;76.70
21357;BME280;10836;53.068;18.234;2023-04-04T01:45:16;102223.44;;;-0.09;74.71
21357;BME280;10836;53.068;18.234;2023-04-04T01:47:44;102221.25;;;-0.13;75.13
21357;BME280;10836;53.068;18.234;2023-04-04T01:50:15;102217.72;;;-0.14;75.17
21357;BME280;10836;53.068;18.234;2023-04-04T01:52:42;102214.34;;;-0.24;74.52
21357;BME280;10836;53.068;18.234;2023-04-04T01:55:09;102213.84;;;-0.27;75.53
21357;BME280;10836;53.068;18.234;2023-04-04T01:57:37;102205.59;;;-0.34;74.53
21357;BME280;10836;53.068;18.234;2023-04-04T02:00:05;102214.00;;;-0.37;75.51
21357;BME280;10836;53.068;18.234;2023-04-04T02:02:41;102210.16;;;-0.26;74.33
21357;BME280;10836;53.068;18.234;2023-04-04T02:05:10;102197.22;;;-0.39;73.86
21357;BME280;10836;53.068;18.234;2023-04-04T02:07:37;102203.59;;;-0.40;73.22
21357;BME280;10836;53.068;18.234;2023-04-04T02:10:11;102196.91;;;-0.44;73.38
21357;BME280;10836;53.068;18.234;2023-04-04T02:12:38;102199.56;;;-0.36;73.79
21357;BME280;10836;53.068;18.234;2023-04-04T02:15:06;102191.84;;;-0.31;73.18
21357;BME280;10836;53.068;18.234;2023-04-04T02:17:33;102197.22;;;-0.31;72.91
21357;BME280;10836;53.068;18.234;2023-04-04T02:20:01;102196.91;;;-0.28;72.34
21357;BME280;10836;53.068;18.234;2023-04-04T02:22:29;102200.72;;;-0.39;72.01
21357;BME280;10836;53.068;18.234;2023-04-04T02:24:56;102201.06;;;-0.42;71.38
21357;BME280;10836;53.068;18.234;2023-04-04T02:27:23;102193.88;;;-0.33;71.46
21357;BME280;10836;53.068;18.234;2023-04-04T02:29:50;102193.56;;;-0.22;70.99
21357;BME280;10836;53.068;18.234;2023-04-04T02:32:17;102190.50;;;-0.35;71.34
21357;BME280;10836;53.068;18.234;2023-04-04T02:34:44;102188.84;;;-0.28;71.02
21357;BME280;10836;53.068;18.234;2023-04-04T02:37:11;102186.00;;;-0.26;71.07
21357;BME280;10836;53.068;18.234;2023-04-04T02:39:39;102183.16;;;-0.25;71.83
21357;BME280;10836;53.068;18.234;2023-04-04T02:42:06;102180.13;;;-0.14;72.59
21357;BME280;10836;53.068;18.234;2023-04-04T02:44:33;102179.78;;;-0.27;71.10
21357;BME280;10836;53.068;18.234;2023-04-04T02:47:00;102181.81;;;-0.21;71.64
21357;BME280;10836;53.068;18.234;2023-04-04T02:49:29;102174.06;;;-0.32;72.09
21357;BME280;10836;53.068;18.234;2023-04-04T02:51:57;102172.75;;;-0.28;71.54
21357;BME280;10836;53.068;18.234;2023-04-04T02:54:29;102171.41;;;-0.24;72.21
21357;BME280;10836;53.068;18.234;2023-04-04T02:56:56;102168.03;;;-0.26;73.48
21357;BME280;10836;53.068;18.234;2023-04-04T02:59:23;102161.00;;;-0.11;72.51
21357;BME280;10836;53.068;18.234;2023-04-04T03:01:51;102162.00;;;-0.20;72.21
21357;BME280;10836;53.068;18.234;2023-04-04T03:04:21;102167.56;;;-0.13;72.06
21357;BME280;10836;53.068;18.234;2023-04-04T03:06:48;102163.69;;;-0.19;72.93
21357;BME280;10836;53.068;18.234;2023-04-04T03:09:15;102164.69;;;-0.20;72.21
21357;BME280;10836;53.068;18.234;2023-04-04T03:11:43;102169.06;;;-0.19;71.16
21357;BME280;10836;53.068;18.234;2023-04-04T03:14:10;102174.75;;;-0.22;71.42
21357;BME280;10836;53.068;18.234;2023-04-04T03:16:38;102178.81;;;-0.10;70.57
21357;BME280;10836;53.068;18.234;2023-04-04T03:19:06;102170.25;;;-0.13;68.81
21357;BME280;10836;53.068;18.234;2023-04-04T03:21:33;102173.25;;;-0.16;68.45
21357;BME280;10836;53.068;18.234;2023-04-04T03:24:00;102177.44;;;-0.14;67.25
21357;BME280;10836;53.068;18.234;2023-04-04T03:26:27;102170.06;;;-0.28;67.47
21357;BME280;10836;53.068;18.234;2023-04-04T03:28:57;102170.72;;;-0.26;68.44
21357;BME280;10836;53.068;18.234;2023-04-04T03:31:24;102169.06;;;-0.19;68.46
21357;BME280;10836;53.068;18.234;2023-04-04T03:33:51;102165.03;;;-0.23;66.40
21357;BME280;10836;53.068;18.234;2023-04-04T03:36:20;102164.03;;;-0.22;66.92
21357;BME280;10836;53.068;18.234;2023-04-04T03:38:49;102166.03;;;-0.24;64.82
21357;BME280;10836;53.068;18.234;2023-04-04T03:41:16;102158.66;;;-0.22;63.51
21357;BME280;10836;53.068;18.234;2023-04-04T03:43:43;102159.97;;;-0.34;64.16
21357;BME280;10836;53.068;18.234;2023-04-04T03:46:10;102166.03;;;-0.24;63.93
21357;BME280;10836;53.068;18.234;2023-04-04T03:48:38;102164.03;;;-0.22;64.18
21357;BME280;10836;53.068;18.234;2023-04-04T03:51:07;102164.03;;;-0.22;62.32
21357;BME280;10836;53.068;18.234;2023-04-04T03:53:36;102165.84;;;-0.30;62.00
21357;BME280;10836;53.068;18.234;2023-04-04T03:56:03;102168.38;;;-0.29;63.45
21357;BME280;10836;53.068;18.234;2023-04-04T03:58:30;102170.75;;;-0.18;63.01
21357;BME280;10836;53.068;18.234;2023-04-04T04:00:57;102161.16;;;-0.28;61.05
21357;BME280;10836;53.068;18.234;2023-04-04T04:03:28;102165.19;;;-0.24;59.52
21357;BME280;10836;53.068;18.234;2023-04-04T04:05:55;102166.69;;;-0.30;60.77
21357;BME280;10836;53.068;18.234;2023-04-04T04:08:22;102169.72;;;-0.25;59.78
21357;BME280;10836;53.068;18.234;2023-04-04T04:10:50;102155.78;;;-0.28;58.90
21357;BME280;10836;53.068;18.234;2023-04-04T04:13:17;102159.13;;;-0.35;59.63
21357;BME280;10836;53.068;18.234;2023-04-04T04:15:44;102156.13;;;-0.40;58.59
21357;BME280;10836;53.068;18.234;2023-04-04T04:18:17;102156.63;;;-0.36;58.71
21357;BME280;10836;53.068;18.234;2023-04-04T04:20:44;102150.25;;;-0.35;58.53
21357;BME280;10836;53.068;18.234;2023-04-04T04:23:11;102157.31;;;-0.26;58.71
21357;BME280;10836;53.068;18.234;2023-04-04T04:25:39;102158.31;;;-0.27;58.77
21357;BME280;10836;53.068;18.234;2023-04-04T04:28:15;102148.41;;;-0.35;59.99
21357;BME280;10836;53.068;18.234;2023-04-04T04:30:42;102154.28;;;-0.31;60.04
21357;BME280;10836;53.068;18.234;2023-04-04T04:33:11;102156.97;;;-0.23;58.81
21357;BME280;10836;53.068;18.234;2023-04-04T04:35:50;102155.63;;;-0.27;58.78
21357;BME280;10836;53.068;18.234;2023-04-04T04:38:19;102154.28;;;-0.31;58.89
21357;BME280;10836;53.068;18.234;2023-04-04T04:40:46;102146.72;;;-0.36;58.78
21357;BME280;10836;53.068;18.234;2023-04-04T04:43:23;102145.56;;;-0.33;58.46
21357;BME280;10836;53.068;18.234;2023-04-04T04:45:50;102152.44;;;-0.22;58.56
21357;BME280;10836;53.068;18.234;2023-04-04T04:48:17;102150.75;;;-0.23;58.62
21357;BME280;10836;53.068;18.234;2023-04-04T04:50:49;102153.28;;;-0.22;57.79
21357;BME280;10836;53.068;18.234;2023-04-04T04:53:26;102138.69;;;-0.19;58.22
21357;BME280;10836;53.068;18.234;2023-04-04T04:55:53;102144.22;;;-0.21;57.09
21357;BME280;10836;53.068;18.234;2023-04-04T04:58:21;102153.28;;;-0.22;58.37
21357;BME280;10836;53.068;18.234;2023-04-04T05:00:54;102152.97;;;-0.11;56.55
21357;BME280;10836;53.068;18.234;2023-04-04T05:03:24;102153.28;;;-0.06;57.21
21357;BME280;10836;53.068;18.234;2023-04-04T05:05:51;102150.94;;;-0.01;56.89
21357;BME280;10836;53.068;18.234;2023-04-04T05:08:19;102151.97;;;-0.02;56.97
21357;BME280;10836;53.068;18.234;2023-04-04T05:11:02;102148.72;;;0.11;56.71
21357;BME280;10836;53.068;18.234;2023-04-04T05:13:32;102154.94;;;0.12;57.28
21357;BME280;10836;53.068;18.234;2023-04-04T05:16:00;102156.97;;;0.10;56.96
21357;BME280;10836;53.068;18.234;2023-04-04T05:18:27;102152.94;;;0.06;56.03
21357;BME280;10836;53.068;18.234;2023-04-04T05:20:55;102154.59;;;0.15;56.63
21357;BME280;10836;53.068;18.234;2023-04-04T05:23:25;102159.63;;;0.26;56.32
21357;BME280;10836;53.068;18.234;2023-04-04T05:25:53;102153.94;;;0.21;56.74
21357;BME280;10836;53.068;18.234;2023-04-04T05:28:21;102164.34;;;0.08;56.56
21357;BME280;10836;53.068;18.234;2023-04-04T05:30:51;102150.91;;;0.16;57.13
21357;BME280;10836;53.068;18.234;2023-04-04T05:33:23;102157.97;;;0.25;56.41
21357;BME280;10836;53.068;18.234;2023-04-04T05:36:00;102163.66;;;0.22;58.59
21357;BME280;10836;53.068;18.234;2023-04-04T05:38:30;102162.50;;;0.16;55.19
21357;BME280;10836;53.068;18.234;2023-04-04T05:40:56;102154.59;;;0.31;57.14
21357;BME280;10836;53.068;18.234;2023-04-04T05:43:24;102158.28;;;0.30;55.99
21357;BME280;10836;53.068;18.234;2023-04-04T05:46:06;102162.66;;;0.23;55.54
21357;BME280;10836;53.068;18.234;2023-04-04T05:48:39;102156.59;;;0.37;55.89
21357;BME280;10836;53.068;18.234;2023-04-04T05:51:06;102155.59;;;0.38;55.99
21357;BME280;10836;53.068;18.234;2023-04-04T05:53:41;102158.94;;;0.40;55.71
21357;BME280;10836;53.068;18.234;2023-04-04T05:56:08;102149.31;;;0.54;56.96
21357;BME280;10836;53.068;18.234;2023-04-04T05:58:35;102147.28;;;0.56;57.21
21357;BME280;10836;53.068;18.234;2023-04-04T06:01:06;102156.66;;;0.76;56.61
21357;BME280;10836;53.068;18.234;2023-04-04T06:03:35;102144.44;;;0.57;57.15
21357;BME280;10836;53.068;18.234;2023-04-04T06:06:06;102141.72;;;0.65;56.75
21357;BME280;10836;53.068;18.234;2023-04-04T06:08:33;102139.41;;;0.46;56.82
21357;BME280;10836;53.068;18.234;2023-04-04T06:11:19;102144.09;;;0.60;57.11
21357;BME280;10836;53.068;18.234;2023-04-04T06:13:49;102154.00;;;0.60;57.23
21357;BME280;10836;53.068;18.234;2023-04-04T06:16:18;102149.91;;;0.80;55.08
21357;BME280;10836;53.068;18.234;2023-04-04T06:18:47;102142.94;;;0.94;55.48
21357;BME280;10836;53.068;18.234;2023-04-04T06:21:13;102138.41;;;0.94;55.37
21357;BME280;10836;53.068;18.234;2023-04-04T06:23:41;102141.91;;;1.03;55.87
21357;BME280;10836;53.068;18.234;2023-04-04T06:26:09;102150.56;;;1.21;56.03
21357;BME280;10836;53.068;18.234;2023-04-04T06:28:48;102145.56;;;1.10;56.79
21357;BME280;10836;53.068;18.234;2023-04-04T06:31:20;102149.22;;;1.17;56.65
21357;BME280;10836;53.068;18.234;2023-04-04T06:33:48;102141.56;;;1.06;55.61
21357;BME280;10836;53.068;18.234;2023-04-04T06:36:16;102144.88;;;1.16;55.33
21357;BME280;10836;53.068;18.234;2023-04-04T06:38:46;102140.47;;;1.23;56.70
21357;BME280;10836;53.068;18.234;2023-04-04T06:41:17;102135.88;;;1.55;55.54
21357;BME280;10836;53.068;18.234;2023-04-04T06:43:46;102132.69;;;1.51;55.22
21357;BME280;10836;53.068;18.234;2023-04-04T06:46:14;102148.84;;;1.74;54.46
21357;BME280;10836;53.068;18.234;2023-04-04T06:48:41;102148.94;;;2.04;54.59
21357;BME280;10836;53.068;18.234;2023-04-04T06:51:08;102146.44;;;2.02;52.78
21357;BME280;10836;53.068;18.234;2023-04-04T06:53:38;102145.72;;;1.85;53.67
21357;BME280;10836;53.068;18.234;2023-04-04T06:56:05;102147.75;;;1.83;52.51
21357;BME280;10836;53.068;18.234;2023-04-04T06:58:33;102143.63;;;1.95;54.46
21357;BME280;10836;53.068;18.234;2023-04-04T07:01:01;102143.13;;;2.15;52.85
21357;BME280;10836;53.068;18.234;2023-04-04T07:03:28;102139.19;;;2.17;54.20
21357;BME280;10836;53.068;18.234;2023-04-04T07:05:55;102139.13;;;2.11;53.85
21357;BME280;10836;53.068;18.234;2023-04-04T07:08:22;102141.41;;;1.99;54.94
21357;BME280;10836;53.068;18.234;2023-04-04T07:10:48;102141.34;;;2.22;55.46
21357;BME280;10836;53.068;18.234;2023-04-04T07:13:16;102138.06;;;1.97;54.22
21357;BME280;10836;53.068;18.234;2023-04-04T07:15:45;102143.09;;;1.77;54.83
21357;BME280;10836;53.068;18.234;2023-04-04T07:18:16;102142.38;;;1.83;56.14
21357;BME280;10836;53.068;18.234;2023-04-04T07:20:46;102153.91;;;1.92;56.80
21357;BME280;10836;53.068;18.234;2023-04-04T07:23:15;102143.44;;;1.97;55.68
21357;BME280;10836;53.068;18.234;2023-04-04T07:25:42;102143.25;;;1.98;55.66
21357;BME280;10836;53.068;18.234;2023-04-04T07:28:10;102148.13;;;1.80;57.35
21357;BME280;10836;53.068;18.234;2023-04-04T07:30:39;102148.81;;;1.97;56.32
21357;BME280;10836;53.068;18.234;2023-04-04T07:33:07;102139.41;;;2.30;56.65
21357;BME280;10836;53.068;18.234;2023-04-04T07:35:34;102145.66;;;2.46;54.68
21357;BME280;10836;53.068;18.234;2023-04-04T07:38:01;102139.50;;;2.37;52.28
21357;BME280;10836;53.068;18.234;2023-04-04T07:40:30;102146.69;;;1.92;54.28
21357;BME280;10836;53.068;18.234;2023-04-04T07:42:58;102145.94;;;1.98;56.62
21357;BME280;10836;53.068;18.234;2023-04-04T07:45:25;102152.69;;;2.32;55.76
21357;BME280;10836;53.068;18.234;2023-04-04T07:47:52;102139.72;;;1.98;55.29
21357;BME280;10836;53.068;18.234;2023-04-04T07:50:19;102139.50;;;2.37;54.28
21357;BME280;10836;53.068;18.234;2023-04-04T07:52:50;102128.72;;;2.96;55.39
21357;BME280;10836;53.068;18.234;2023-04-04T07:55:17;102140.06;;;3.27;52.18
21357;BME280;10836;53.068;18.234;2023-04-04T07:57:46;102137.53;;;3.41;49.23
21357;BME280;10836;53.068;18.234;2023-04-04T08:00:13;102138.28;;;3.34;49.14
21357;BME280;10836;53.068;18.234;2023-04-04T08:02:42;102130.53;;;3.10;48.86
21357;BME280;10836;53.068;18.234;2023-04-04T08:05:09;102134.50;;;3.29;50.04
21357;BME280;10836;53.068;18.234;2023-04-04T08:07:36;102134.69;;;3.49;48.34
21357;BME280;10836;53.068;18.234;2023-04-04T08:10:03;102130.09;;;3.43;47.29
21357;BME280;10836;53.068;18.234;2023-04-04T08:12:32;102129.28;;;3.91;48.97
21357;BME280;10836;53.068;18.234;2023-04-04T08:14:58;102123.97;;;4.05;47.31
21357;BME280;10836;53.068;18.234;2023-04-04T08:17:26;102126.00;;;3.96;46.50
21357;BME280;10836;53.068;18.234;2023-04-04T08:19:53;102119.50;;;3.26;47.92
21357;BME280;10836;53.068;18.234;2023-04-04T08:22:20;102117.72;;;3.33;49.12
21357;BME280;10836;53.068;18.234;2023-04-04T08:24:47;102120.66;;;3.17;49.56
21357;BME280;10836;53.068;18.234;2023-04-04T08:27:14;102110.47;;;2.98;49.84
21357;BME280;10836;53.068;18.234;2023-04-04T08:29:41;102108.91;;;2.89;50.15
21357;BME280;10836;53.068;18.234;2023-04-04T08:32:08;102111.34;;;2.69;51.52
21357;BME280;10836;53.068;18.234;2023-04-04T08:34:35;102109.97;;;2.58;50.42
21357;BME280;10836;53.068;18.234;2023-04-04T08:37:03;102112.38;;;3.04;50.40
21357;BME280;10836;53.068;18.234;2023-04-04T08:39:30;102108.03;;;3.03;50.73
21357;BME280;10836;53.068;18.234;2023-04-04T08:42:05;102105.59;;;6.11;45.92
21357;BME280;10836;53.068;18.234;2023-04-04T08:44:33;102095.78;;;9.83;38.02
21357;BME280;10836;53.068;18.234;2023-04-04T08:47:04;102094.41;;;12.43;31.98
21357;BME280;10836;53.068;18.234;2023-04-04T08:49:37;102094.19;;;11.77;31.12
21357;BME280;10836;53.068;18.234;2023-04-04T08:52:04;102094.63;;;11.00;31.61
21357;BME280;10836;53.068;18.234;2023-04-04T08:54:33;102086.31;;;9.44;33.11
21357;BME280;10836;53.068;18.234;2023-04-04T08:57:01;102097.03;;;8.60;36.62
21357;BME280;10836;53.068;18.234;2023-04-04T08:59:30;102096.06;;;8.30;36.24
21357;BME280;10836;53.068;18.234;2023-04-04T09:04:38;102074.69;;;8.88;35.14
21357;BME280;10836;53.068;18.234;2023-04-04T09:07:05;102080.38;;;8.68;34.42
21357;BME280;10836;53.068;18.234;2023-04-04T09:09:32;102084.69;;;8.40;35.31
21357;BME280;10836;53.068;18.234;2023-04-04T09:12:00;102081.63;;;7.23;36.06
21357;BME280;10836;53.068;18.234;2023-04-04T09:14:31;102070.34;;;6.82;36.70
21357;BME280;10836;53.068;18.234;2023-04-04T09:16:59;102067.41;;;6.19;38.10
21357;BME280;10836;53.068;18.234;2023-04-04T09:19:26;102073.25;;;6.16;39.85
21357;BME280;10836;53.068;18.234;2023-04-04T09:21:53;102071.38;;;5.70;40.03
21357;BME280;10836;53.068;18.234;2023-04-04T09:24:20;102069.09;;;5.54;40.54
21357;BME280;10836;53.068;18.234;2023-04-04T09:29:23;102061.69;;;6.98;39.54
21357;BME280;10836;53.068;18.234;2023-04-04T09:31:51;102076.44;;;7.15;38.51
21357;BME280;10836;53.068;18.234;2023-04-04T09:34:19;102066.69;;;6.56;38.90
21357;BME280;10836;53.068;18.234;2023-04-04T09:36:46;102067.84;;;6.87;39.07
21357;BME280;10836;53.068;18.234;2023-04-04T09:39:13;102070.34;;;6.82;39.26
21357;BME280;10836;53.068;18.234;2023-04-04T09:41:44;102070.78;;;6.79;40.40
21357;BME280;10836;53.068;18.234;2023-04-04T09:44:11;102074.59;;;6.64;40.81
21357;BME280;10836;53.068;18.234;2023-04-04T09:46:40;102074.25;;;6.48;40.69
21357;BME280;10836;53.068;18.234;2023-04-04T09:49:10;102075.94;;;6.22;42.32
21357;BME280;10836;53.068;18.234;2023-04-04T09:51:39;102075.75;;;5.71;41.54
21357;BME280;10836;53.068;18.234;2023-04-04T09:54:19;102080.94;;;5.40;42.53
21357;BME280;10836;53.068;18.234;2023-04-04T09:56:55;102077.97;;;5.21;42.88
21357;BME280;10836;53.068;18.234;2023-04-04T09:59:22;102082.81;;;4.78;42.67
21357;BME280;10836;53.068;18.234;2023-04-04T10:01:50;102078.75;;;4.54;43.55
21357;BME280;10836;53.068;18.234;2023-04-04T10:04:19;102070.22;;;4.51;43.83
21357;BME280;10836;53.068;18.234;2023-04-04T10:06:46;102072.94;;;4.16;45.14
21357;BME280;10836;53.068;18.234;2023-04-04T10:09:14;102063.03;;;4.30;46.04
21357;BME280;10836;53.068;18.234;2023-04-04T10:11:42;102056.34;;;4.26;44.54
21357;BME280;10836;53.068;18.234;2023-04-04T10:14:08;102053.53;;;4.47;44.76
21357;BME280;10836;53.068;18.234;2023-04-04T10:16:36;102053.22;;;4.63;45.24
21357;BME280;10836;53.068;18.234;2023-04-04T10:19:04;102058.28;;;4.86;45.37
21357;BME280;10836;53.068;18.234;2023-04-04T10:21:33;102055.88;;;5.11;43.89
21357;BME280;10836;53.068;18.234;2023-04-04T10:24:01;102051.72;;;5.28;45.76
21357;BME280;10836;53.068;18.234;2023-04-04T10:26:35;102050.06;;;5.34;44.19
21357;BME280;10836;53.068;18.234;2023-04-04T10:29:03;102054.28;;;5.63;44.29
21357;BME280;10836;53.068;18.234;2023-04-04T10:31:32;102043.00;;;5.40;42.23
21357;BME280;10836;53.068;18.234;2023-04-04T10:37:12;102047.50;;;4.93;43.55
21357;BME280;10836;53.068;18.234;2023-04-04T10:39:45;102052.50;;;4.96;44.13
21357;BME280;10836;53.068;18.234;2023-04-04T10:42:14;102048.47;;;4.79;44.48
21357;BME280;10836;53.068;18.234;2023-04-04T10:44:43;102054.50;;;3.98;45.38
21357;BME280;10836;53.068;18.234;2023-04-04T10:47:19;102044.53;;;3.71;45.88
21357;BME280;10836;53.068;18.234;2023-04-04T10:49:49;102046.38;;;3.43;47.97
21357;BME280;10836;53.068;18.234;2023-04-04T10:52:18;102043.03;;;3.41;47.61
21357;BME280;10836;53.068;18.234;2023-04-04T10:54:51;102046.59;;;3.48;48.08
21357;BME280;10836;53.068;18.234;2023-04-04T10:57:20;102045.06;;;3.60;48.54
21357;BME280;10836;53.068;18.234;2023-04-04T11:05:17;102040.34;;;3.68;48.27
21357;BME280;10836;53.068;18.234;2023-04-04T11:07:46;102029.09;;;3.93;48.44
21357;BME280;10836;53.068;18.234;2023-04-04T11:10:37;102038.53;;;3.76;49.32
21357;BME280;10836;53.068;18.234;2023-04-04T11:13:09;102029.00;;;4.08;49.50
21357;BME280;10836;53.068;18.234;2023-04-04T11:15:50;102024.91;;;3.90;50.83
21357;BME280;10836;53.068;18.234;2023-04-04T11:18:19;102027.41;;;4.20;52.45
21357;BME280;10836;53.068;18.234;2023-04-04T11:21:02;102027.75;;;4.10;51.41
21357;BME280;10836;53.068;18.234;2023-04-04T11:26:36;102023.38;;;5.24;49.08
21357;BME280;10836;53.068;18.234;2023-04-04T11:29:05;102020.53;;;5.92;45.51
21357;BME280;10836;53.068;18.234;2023-04-04T11:31:43;102016.13;;;6.68;43.70
21357;BME280;10836;53.068;18.234;2023-04-04T11:34:18;102015.25;;;6.75;44.24
21357;BME280;10836;53.068;18.234;2023-04-04T11:36:55;102015.25;;;6.75;41.63
21357;BME280;10836;53.068;18.234;2023-04-04T11:39:28;102002.06;;;6.33;41.70
21357;BME280;10836;53.068;18.234;2023-04-04T11:44:26;101990.63;;;6.25;42.84
21357;BME280;10836;53.068;18.234;2023-04-04T11:47:18;101981.50;;;6.57;42.68
21357;BME280;10836;53.068;18.234;2023-04-04T11:49:45;101983.88;;;8.28;42.44
21357;BME280;10836;53.068;18.234;2023-04-04T11:52:15;101994.88;;;9.29;39.70
21357;BME280;10836;53.068;18.234;2023-04-04T11:54:45;101980.47;;;8.99;38.44
21357;BME280;10836;53.068;18.234;2023-04-04T11:57:15;101980.19;;;8.89;38.76
21357;BME280;10836;53.068;18.234;2023-04-04T11:59:47;101985.97;;;8.26;38.64
21357;BME280;10836;53.068;18.234;2023-04-04T12:02:22;101984.50;;;7.44;39.07
21357;BME280;10836;53.068;18.234;2023-04-04T12:04:53;101980.56;;;7.40;41.00
21357;BME280;10836;53.068;18.234;2023-04-04T12:07:22;101986.78;;;7.47;39.89
21357;BME280;10836;53.068;18.234;2023-04-04T12:09:50;101977.38;;;8.11;40.70
21357;BME280;10836;53.068;18.234;2023-04-04T12:12:18;101974.28;;;8.62;39.04
21357;BME280;10836;53.068;18.234;2023-04-04T12:14:45;101971.31;;;7.90;37.54
21357;BME280;10836;53.068;18.234;2023-04-04T12:17:14;101977.19;;;7.87;39.04
21357;BME280;10836;53.068;18.234;2023-04-04T12:19:42;101979.22;;;7.49;38.44
21357;BME280;10836;53.068;18.234;2023-04-04T12:22:09;101977.44;;;7.11;39.12
21357;BME280;10836;53.068;18.234;2023-04-04T12:24:37;101967.88;;;6.71;40.53
21357;BME280;10836;53.068;18.234;2023-04-04T12:27:05;101963.63;;;6.43;42.19
21357;BME280;10836;53.068;18.234;2023-04-04T12:29:32;101964.91;;;6.41;42.10
21357;BME280;10836;53.068;18.234;2023-04-04T12:32:04;101959.06;;;6.37;42.76
21357;BME280;10836;53.068;18.234;2023-04-04T12:34:33;101963.16;;;6.91;41.86
21357;BME280;10836;53.068;18.234;2023-04-04T12:37:01;101954.59;;;7.44;42.45
21357;BME280;10836;53.068;18.234;2023-04-04T12:39:29;101950.81;;;8.91;39.19
21357;BME280;10836;53.068;18.234;2023-04-04T12:42:00;101936.06;;;8.98;39.28
21357;BME280;10836;53.068;18.234;2023-04-04T12:44:30;101935.34;;;8.25;39.23
21357;BME280;10836;53.068;18.234;2023-04-04T12:46:58;101936.56;;;7.92;39.69
21357;BME280;10836;53.068;18.234;2023-04-04T12:49:28;101930.59;;;8.98;37.79
21357;BME280;10836;53.068;18.234;2023-04-04T12:51:56;101927.56;;;9.77;37.49
21357;BME280;10836;53.068;18.234;2023-04-04T12:54:27;101922.00;;;9.37;37.70
21357;BME280;10836;53.068;18.234;2023-04-04T12:56:56;101914.63;;;9.95;35.59
21357;BME280;10836;53.068;18.234;2023-04-04T12:59:28;101925.81;;;9.36;36.10
21357;BME280;10836;53.068;18.234;2023-04-04T13:01:55;101919.25;;;8.72;37.89
21357;BME280;10836;53.068;18.234;2023-04-04T13:04:23;101906.63;;;8.29;38.50
21357;BME280;10836;53.068;18.234;2023-04-04T13:06:50;101910.44;;;7.30;38.84
21357;BME280;10836;53.068;18.234;2023-04-04T13:09:19;101915.34;;;6.90;38.97
21357;BME280;10836;53.068;18.234;2023-04-04T13:12:05;101915.97;;;6.92;41.58
21357;BME280;10836;53.068;18.234;2023-04-04T13:15:00;101903.75;;;7.01;39.91